createdAt,value
2023-11-04T00:00:03.834Z,8.20
2023-11-04T00:02:32.028Z,8.20
2023-11-04T00:05:00.214Z,8.20
2023-11-04T00:07:27.464Z,8.30
2023-11-04T00:09:57.962Z,8.30
2023-11-04T00:12:26.270Z,8.30
2023-11-04T00:14:54.433Z,8.30
2023-11-04T00:17:22.736Z,8.30
2023-11-04T00:19:50.987Z,8.30
2023-11-04T00:22:19.174Z,8.30
2023-11-04T00:24:49.048Z,8.30
2023-11-04T00:27:18.860Z,8.30
2023-11-04T00:29:47.061Z,8.30
2023-11-04T00:32:16.033Z,8.30
2023-11-04T00:34:44.509Z,8.30
2023-11-04T00:37:12.740Z,8.40
2023-11-04T00:39:41.249Z,8.40
2023-11-04T00:42:09.791Z,8.40
2023-11-04T00:44:39.988Z,8.40
2023-11-04T00:47:08.358Z,8.40
2023-11-04T00:49:36.925Z,8.40
2023-11-04T00:52:05.624Z,8.40
2023-11-04T00:54:33.971Z,8.40
2023-11-04T00:57:02.254Z,8.50
2023-11-04T00:59:30.551Z,8.50
2023-11-04T01:02:00.146Z,8.40
2023-11-04T01:04:28.434Z,8.40
2023-11-04T01:06:56.702Z,8.50
2023-11-04T01:09:24.846Z,8.50
2023-11-04T01:11:53.039Z,8.40
2023-11-04T01:14:21.440Z,8.50
2023-11-04T01:16:49.680Z,8.50
2023-11-04T01:19:19.440Z,8.50
2023-11-04T01:21:47.910Z,8.50
2023-11-04T01:24:16.121Z,8.50
2023-11-04T01:26:44.316Z,8.50
2023-11-04T01:29:13.060Z,8.60
2023-11-04T01:31:41.293Z,8.60
2023-11-04T01:34:11.571Z,8.50
2023-11-04T01:36:41.450Z,8.60
2023-11-04T01:39:09.686Z,8.60
2023-11-04T01:41:37.857Z,8.60
2023-11-04T01:44:06.660Z,8.50
2023-11-04T01:46:36.035Z,8.40
2023-11-04T01:49:04.970Z,8.40
2023-11-04T01:51:33.629Z,8.20
2023-11-04T01:54:04.983Z,8.20
2023-11-04T01:56:40.196Z,8.10
2023-11-04T01:59:09.923Z,8.00
2023-11-04T02:01:39.465Z,8.00
2023-11-04T02:04:09.178Z,8.00
2023-11-04T02:06:37.473Z,8.00
2023-11-04T02:09:07.387Z,8.00
2023-11-04T02:11:35.744Z,8.10
2023-11-04T02:14:05.072Z,8.20
2023-11-04T02:16:33.230Z,8.20
2023-11-04T02:19:01.530Z,8.10
2023-11-04T02:21:31.135Z,7.90
2023-11-04T02:23:59.406Z,7.80
2023-11-04T02:26:28.128Z,7.70
2023-11-04T02:28:56.899Z,7.70
2023-11-04T02:31:25.208Z,7.70
2023-11-04T02:33:53.867Z,7.60
2023-11-04T02:36:22.240Z,7.70
2023-11-04T02:38:51.804Z,7.60
2023-11-04T02:41:20.001Z,7.60
2023-11-04T02:43:48.256Z,7.60
2023-11-04T02:46:16.440Z,7.60
2023-11-04T02:48:44.671Z,7.60
2023-11-04T02:51:12.928Z,7.60
2023-11-04T02:53:41.298Z,7.60
2023-11-04T02:56:11.796Z,7.60
2023-11-04T02:58:39.921Z,7.60
2023-11-04T03:01:08.233Z,7.70
2023-11-04T03:03:36.894Z,7.70
2023-11-04T03:06:05.541Z,7.70
2023-11-04T03:08:33.755Z,7.70
2023-11-04T03:11:01.899Z,7.60
2023-11-04T03:13:31.488Z,7.70
2023-11-04T03:15:59.783Z,7.70
2023-11-04T03:18:28.211Z,7.70
2023-11-04T03:20:56.445Z,7.70
2023-11-04T03:23:24.656Z,7.80
2023-11-04T03:25:52.972Z,7.70
2023-11-04T03:28:21.126Z,7.80
2023-11-04T03:30:50.863Z,7.80
2023-11-04T03:33:19.486Z,7.80
2023-11-04T03:35:47.690Z,7.90
2023-11-04T03:38:16.247Z,7.90
2023-11-04T03:40:44.345Z,7.80
2023-11-04T03:43:13.251Z,7.80
2023-11-04T03:45:41.847Z,7.70
2023-11-04T03:48:11.801Z,7.70
2023-11-04T03:50:40.165Z,7.80
2023-11-04T03:53:08.382Z,7.70
2023-11-04T03:55:37.096Z,7.70
2023-11-04T03:58:05.234Z,7.60
2023-11-04T04:00:33.829Z,7.60
2023-11-04T04:03:02.063Z,7.60
2023-11-04T04:05:32.704Z,7.70
2023-11-04T04:08:00.942Z,7.70
2023-11-04T04:10:29.328Z,7.70
2023-11-04T04:12:57.859Z,7.70
2023-11-04T04:15:26.130Z,7.70
2023-11-04T04:17:54.347Z,7.70
2023-11-04T04:20:22.772Z,7.70
2023-11-04T04:22:52.414Z,7.80
2023-11-04T04:25:20.885Z,7.80
2023-11-04T04:27:49.155Z,7.80
2023-11-04T04:30:17.996Z,7.80
2023-11-04T04:32:47.707Z,7.80
2023-11-04T04:35:16.348Z,7.90
2023-11-04T04:37:44.527Z,7.90
2023-11-04T04:40:14.763Z,7.90
2023-11-04T04:42:42.934Z,7.90
2023-11-04T04:45:11.962Z,7.90
2023-11-04T04:47:41.458Z,8.00
2023-11-04T04:50:10.020Z,8.00
2023-11-04T04:52:38.349Z,8.00
2023-11-04T04:55:07.311Z,8.10
2023-11-04T04:57:36.622Z,8.10
2023-11-04T05:00:06.200Z,8.10
2023-11-04T05:02:35.062Z,8.10
2023-11-04T05:05:04.027Z,8.20
2023-11-04T05:07:32.260Z,8.20
2023-11-04T05:10:00.425Z,8.20
2023-11-04T05:12:28.612Z,8.30
2023-11-04T05:14:58.128Z,8.30
2023-11-04T05:17:26.822Z,8.40
2023-11-04T05:19:56.814Z,8.30
2023-11-04T05:22:25.476Z,8.20
2023-11-04T05:24:53.937Z,8.20
2023-11-04T05:27:22.437Z,8.20
2023-11-04T05:29:50.680Z,8.20
2023-11-04T05:32:19.240Z,8.20
2023-11-04T05:34:47.546Z,8.30
2023-11-04T05:37:15.949Z,8.30
2023-11-04T05:39:44.244Z,8.40
2023-11-04T05:42:12.403Z,8.40
2023-11-04T05:44:40.585Z,8.40
2023-11-04T05:47:08.720Z,8.40
2023-11-04T05:49:39.140Z,8.40
2023-11-04T05:52:07.819Z,8.40
2023-11-04T05:54:36.024Z,8.50
2023-11-04T05:57:04.495Z,8.50
2023-11-04T05:59:32.647Z,8.50
2023-11-04T06:02:00.779Z,8.50
2023-11-04T06:04:29.285Z,8.50
2023-11-04T06:06:59.038Z,8.60
2023-11-04T06:09:27.936Z,8.60
2023-11-04T06:11:56.400Z,8.60
2023-11-04T06:14:24.771Z,8.60
2023-11-04T06:16:52.995Z,8.60
2023-11-04T06:19:21.380Z,8.60
2023-11-04T06:21:49.467Z,8.70
2023-11-04T06:24:18.995Z,8.60
2023-11-04T06:26:47.116Z,8.60
2023-11-04T06:29:17.546Z,8.40
2023-11-04T06:31:45.833Z,8.40
2023-11-04T06:34:14.234Z,8.30
2023-11-04T06:36:42.816Z,8.30
2023-11-04T06:39:10.952Z,8.40
2023-11-04T06:41:41.606Z,8.40
2023-11-04T06:44:09.889Z,8.40
2023-11-04T06:46:38.913Z,8.40
2023-11-04T06:49:09.972Z,8.40
2023-11-04T06:51:38.349Z,8.40
2023-11-04T06:54:07.140Z,8.50
2023-11-04T06:56:35.269Z,8.50
2023-11-04T06:59:05.945Z,8.60
2023-11-04T07:01:34.224Z,8.60
2023-11-04T07:04:02.499Z,8.60
2023-11-04T07:06:30.707Z,8.60
2023-11-04T07:08:58.935Z,8.70
2023-11-04T07:11:27.062Z,8.80
2023-11-04T07:13:55.490Z,8.80
2023-11-04T07:16:25.205Z,8.80
2023-11-04T07:18:53.429Z,8.90
2023-11-04T07:21:21.645Z,9.00
2023-11-04T07:23:49.782Z,9.00
2023-11-04T07:26:17.955Z,9.00
2023-11-04T07:28:47.597Z,9.10
2023-11-04T07:31:19.125Z,9.10
2023-11-04T07:33:48.789Z,9.10
2023-11-04T07:36:25.890Z,9.20
2023-11-04T07:38:54.307Z,9.30
2023-11-04T07:41:22.655Z,9.30
2023-11-04T07:43:50.875Z,9.40
2023-11-04T07:46:19.088Z,9.40
2023-11-04T07:48:48.640Z,9.40
2023-11-04T07:51:16.809Z,9.50
2023-11-04T07:53:44.926Z,9.50
2023-11-04T07:56:13.764Z,9.60
2023-11-04T07:58:41.826Z,9.70
2023-11-04T08:01:10.356Z,9.80
2023-11-04T08:03:39.290Z,9.80
2023-11-04T08:06:09.381Z,10.00
2023-11-04T08:08:38.091Z,10.00
2023-11-04T08:11:06.838Z,10.10
2023-11-04T08:13:35.214Z,10.10
2023-11-04T08:16:03.550Z,10.00
2023-11-04T08:18:32.949Z,9.90
2023-11-04T08:21:02.381Z,9.80
2023-11-04T08:23:32.068Z,9.80
2023-11-04T08:26:00.355Z,9.80
2023-11-04T08:28:30.107Z,9.80
2023-11-04T08:30:59.170Z,9.90
2023-11-04T08:33:27.916Z,9.90
2023-11-04T08:35:57.141Z,9.90
2023-11-04T08:38:25.467Z,9.90
2023-11-04T08:40:55.467Z,9.80
2023-11-04T08:43:23.937Z,9.80
2023-11-04T08:45:52.662Z,9.70
2023-11-04T08:48:21.005Z,9.70
2023-11-04T08:50:49.740Z,9.70
2023-11-04T08:53:17.990Z,9.70
2023-11-04T08:55:46.119Z,9.70
2023-11-04T08:58:15.947Z,9.70
2023-11-04T09:00:45.914Z,9.70
2023-11-04T09:03:14.698Z,9.70
2023-11-04T09:05:42.988Z,9.70
2023-11-04T09:08:11.158Z,9.70
2023-11-04T09:10:39.441Z,9.80
2023-11-04T09:13:08.258Z,9.80
2023-11-04T09:15:37.868Z,9.90
2023-11-04T09:18:06.276Z,9.90
2023-11-04T09:20:35.374Z,10.10
2023-11-04T09:23:03.951Z,10.30
2023-11-04T09:25:32.236Z,10.40
2023-11-04T09:28:00.676Z,10.40
2023-11-04T09:30:29.783Z,10.40
2023-11-04T09:32:59.527Z,10.20
2023-11-04T09:35:27.918Z,10.10
2023-11-04T09:37:56.051Z,10.10
2023-11-04T09:40:24.463Z,10.00
2023-11-04T09:42:53.946Z,9.80
2023-11-04T09:45:24.371Z,9.70
2023-11-04T09:47:53.965Z,9.50
2023-11-04T09:50:23.915Z,9.40
2023-11-04T09:53:01.570Z,9.30
2023-11-04T09:55:30.617Z,9.20
2023-11-04T09:58:00.658Z,9.20
2023-11-04T10:00:31.011Z,9.30
2023-11-04T10:02:59.430Z,9.40
2023-11-04T10:05:30.345Z,9.50
2023-11-04T10:07:58.730Z,9.40
2023-11-04T10:10:29.565Z,9.30
2023-11-04T10:12:58.322Z,9.30
2023-11-04T10:15:26.842Z,9.20
2023-11-04T10:17:56.335Z,9.30
2023-11-04T10:20:25.546Z,9.30
2023-11-04T10:22:55.767Z,9.40
2023-11-04T10:25:24.051Z,9.50
2023-11-04T10:27:52.231Z,9.50
2023-11-04T10:30:20.714Z,9.50
2023-11-04T10:32:54.488Z,9.50
2023-11-04T10:35:23.894Z,9.50
2023-11-04T10:38:00.485Z,9.40
2023-11-04T10:40:30.457Z,9.40
2023-11-04T10:43:04.331Z,9.40
2023-11-04T10:45:43.705Z,9.40
2023-11-04T10:48:20.917Z,9.30
2023-11-04T10:51:00.580Z,9.20
2023-11-04T10:53:45.606Z,9.30
2023-11-04T10:56:23.475Z,9.30
2023-11-04T10:59:08.203Z,9.30
2023-11-04T11:01:39.642Z,9.20
2023-11-04T11:04:09.599Z,9.10
2023-11-04T11:06:40.752Z,9.00
2023-11-04T11:09:11.630Z,8.90
2023-11-04T11:11:50.327Z,8.90
2023-11-04T11:14:19.493Z,8.80
2023-11-04T11:16:47.747Z,8.70
2023-11-04T11:19:15.993Z,8.60
2023-11-04T11:21:50.768Z,8.50
2023-11-04T11:24:22.135Z,8.30
2023-11-04T11:26:51.919Z,8.20
2023-11-04T11:29:25.293Z,8.20
2023-11-04T11:32:05.154Z,8.20
2023-11-04T11:34:34.018Z,8.30
2023-11-04T11:37:02.960Z,8.40
2023-11-04T11:39:32.721Z,8.60
2023-11-04T11:42:02.928Z,8.60
2023-11-04T11:44:31.130Z,8.70
2023-11-04T11:46:59.324Z,8.70
2023-11-04T11:49:27.935Z,8.80
2023-11-04T11:51:58.209Z,8.90
2023-11-04T11:54:26.686Z,8.80
2023-11-04T11:56:56.452Z,8.80
2023-11-04T11:59:24.861Z,8.80
2023-11-04T12:01:54.913Z,8.80
2023-11-04T12:04:23.517Z,8.80
2023-11-04T12:06:54.152Z,8.80
2023-11-04T12:09:23.760Z,8.80
2023-11-04T12:11:53.827Z,8.80
2023-11-04T12:14:24.901Z,8.80
2023-11-04T12:16:55.262Z,8.70
2023-11-04T12:19:24.150Z,8.80
2023-11-04T12:21:52.373Z,8.80
2023-11-04T12:24:21.341Z,8.90
2023-11-04T12:26:53.943Z,8.80
2023-11-04T12:29:23.511Z,8.80
2023-11-04T12:31:52.794Z,8.80
2023-11-04T12:34:25.570Z,8.80
2023-11-04T12:36:54.195Z,8.90
2023-11-04T12:39:22.718Z,8.80
2023-11-04T12:41:51.479Z,8.90
2023-11-04T12:44:22.909Z,8.90
2023-11-04T12:46:56.669Z,8.90
2023-11-04T12:49:24.778Z,8.80
2023-11-04T12:51:53.030Z,8.90
2023-11-04T12:54:21.180Z,8.90
2023-11-04T12:56:49.366Z,8.90
2023-11-04T12:59:17.807Z,9.00
2023-11-04T13:01:45.937Z,9.00
2023-11-04T13:04:15.702Z,9.10
2023-11-04T13:06:44.459Z,9.00
2023-11-04T13:09:12.712Z,9.00
2023-11-04T13:11:41.157Z,9.10
2023-11-04T13:14:09.309Z,9.10
2023-11-04T13:16:37.591Z,9.20
2023-11-04T13:19:06.248Z,9.30
2023-11-04T13:21:35.822Z,9.30
2023-11-04T13:24:04.763Z,9.40
2023-11-04T13:26:32.922Z,9.40
2023-11-04T13:29:01.511Z,9.40
2023-11-04T13:31:29.575Z,9.50
2023-11-04T13:33:57.913Z,9.50
2023-11-04T13:36:26.249Z,9.60
2023-11-04T13:39:03.469Z,9.60
2023-11-04T13:41:35.448Z,9.70
2023-11-04T13:44:05.132Z,9.80
2023-11-04T13:46:33.505Z,9.90
2023-11-04T13:49:02.817Z,9.90
2023-11-04T13:51:31.261Z,10.00
2023-11-04T13:54:00.792Z,10.00
2023-11-04T13:56:28.889Z,10.00
2023-11-04T13:58:57.036Z,10.20
2023-11-04T14:01:26.078Z,10.30
2023-11-04T14:03:54.432Z,10.30
2023-11-04T14:06:22.687Z,10.20
2023-11-04T14:08:50.843Z,10.20
2023-11-04T14:11:20.647Z,10.20
2023-11-04T14:13:48.745Z,10.20
2023-11-04T14:16:17.004Z,10.10
2023-11-04T14:18:45.387Z,10.10
2023-11-04T14:21:14.881Z,10.10
2023-11-04T14:23:43.090Z,10.20
2023-11-04T14:26:11.160Z,10.20
2023-11-04T14:28:40.639Z,10.20
2023-11-04T14:31:08.860Z,10.20
2023-11-04T14:33:37.015Z,10.20
2023-11-04T14:36:06.181Z,10.30
2023-11-04T14:38:34.464Z,10.40
2023-11-04T14:41:03.573Z,10.40
2023-11-04T14:43:31.800Z,10.50
2023-11-04T14:46:01.472Z,10.50
2023-11-04T14:48:29.694Z,10.50
2023-11-04T14:50:58.581Z,10.60
2023-11-04T14:53:26.763Z,10.60
2023-11-04T14:55:55.476Z,10.70
2023-11-04T14:58:23.614Z,10.70
2023-11-04T15:00:51.881Z,10.80
2023-11-04T15:03:22.608Z,10.90
2023-11-04T15:05:50.850Z,10.80
2023-11-04T15:08:19.359Z,10.80
2023-11-04T15:10:47.651Z,10.80
2023-11-04T15:13:15.927Z,10.80
2023-11-04T15:15:44.565Z,10.70
2023-11-04T15:18:15.330Z,10.80
2023-11-04T15:20:46.860Z,10.80
2023-11-04T15:23:15.077Z,10.80
2023-11-04T15:25:43.400Z,10.70
2023-11-04T15:28:11.884Z,10.70
2023-11-04T15:30:40.317Z,10.70
2023-11-04T15:33:10.358Z,10.70
2023-11-04T15:35:39.712Z,10.70
2023-11-04T15:38:10.333Z,10.70
2023-11-04T15:40:40.325Z,10.70
2023-11-04T15:43:09.945Z,10.60
2023-11-04T15:45:38.400Z,10.50
2023-11-04T15:48:07.399Z,10.40
2023-11-04T15:50:35.643Z,10.30
2023-11-04T15:53:04.073Z,10.40
2023-11-04T15:55:33.731Z,10.30
2023-11-04T15:58:03.020Z,10.20
2023-11-04T16:00:31.312Z,10.20
2023-11-04T16:03:00.058Z,10.30
2023-11-04T16:05:28.289Z,10.30
2023-11-04T16:07:56.495Z,10.20
2023-11-04T16:10:24.673Z,10.30
2023-11-04T16:12:54.166Z,10.30
2023-11-04T16:15:23.378Z,10.30
2023-11-04T16:17:52.536Z,10.30
2023-11-04T16:20:20.698Z,10.30
2023-11-04T16:22:48.930Z,10.30
2023-11-04T16:25:17.363Z,10.30
2023-11-04T16:27:45.708Z,10.30
2023-11-04T16:30:15.812Z,10.20
2023-11-04T16:32:45.430Z,10.20
2023-11-04T16:35:13.781Z,10.30
2023-11-04T16:37:41.906Z,10.40
2023-11-04T16:40:11.735Z,10.40
2023-11-04T16:42:40.868Z,10.40
2023-11-04T16:45:12.819Z,10.50
2023-11-04T16:47:43.833Z,10.50
2023-11-04T16:50:15.745Z,10.60
2023-11-04T16:52:44.689Z,10.60
2023-11-04T16:55:13.491Z,10.60
2023-11-04T16:57:41.783Z,10.50
2023-11-04T17:00:13.274Z,10.50
2023-11-04T17:02:42.828Z,10.40
2023-11-04T17:05:11.764Z,10.40
2023-11-04T17:07:41.461Z,10.40
2023-11-04T17:10:10.599Z,10.50
2023-11-04T17:12:38.842Z,10.50
2023-11-04T17:15:08.170Z,10.50
2023-11-04T17:17:37.105Z,10.60
2023-11-04T17:20:08.180Z,10.70
2023-11-04T17:22:36.334Z,10.80
2023-11-04T17:25:05.297Z,10.80
2023-11-04T17:27:33.730Z,10.70
2023-11-04T17:30:02.006Z,10.60
2023-11-04T17:32:30.636Z,10.50
2023-11-04T17:34:59.875Z,10.40
2023-11-04T17:37:29.686Z,10.30
2023-11-04T17:39:57.897Z,10.30
2023-11-04T17:42:26.054Z,10.30
2023-11-04T17:44:54.613Z,10.30
2023-11-04T17:47:22.807Z,10.30
2023-11-04T17:49:50.874Z,10.20
2023-11-04T17:52:19.101Z,10.20
2023-11-04T17:54:48.659Z,10.20
2023-11-04T17:57:16.781Z,10.10
2023-11-04T17:59:44.948Z,10.10
2023-11-04T18:02:14.241Z,10.10
2023-11-04T18:04:42.479Z,10.00
2023-11-04T18:07:10.854Z,10.00
2023-11-04T18:09:39.026Z,10.10
2023-11-04T18:12:09.249Z,10.10
2023-11-04T18:14:37.491Z,10.20
2023-11-04T18:17:05.795Z,10.20
2023-11-04T18:19:33.927Z,10.20
2023-11-04T18:22:02.204Z,10.20
2023-11-04T18:24:30.308Z,10.20
2023-11-04T18:26:58.479Z,10.20
2023-11-04T18:29:28.000Z,10.20
2023-11-04T18:31:56.182Z,10.20
2023-11-04T18:34:24.363Z,10.20
2023-11-04T18:36:52.487Z,10.20
2023-11-04T18:39:20.703Z,10.10
2023-11-04T18:41:51.403Z,10.10
2023-11-04T18:44:19.652Z,10.10
2023-11-04T18:46:49.214Z,10.10
2023-11-04T18:49:18.571Z,10.20
2023-11-04T18:51:46.827Z,10.10
2023-11-04T18:54:15.244Z,10.10
2023-11-04T18:56:44.056Z,10.10
2023-11-04T18:59:12.189Z,10.10
2023-11-04T19:01:40.333Z,10.10
2023-11-04T19:04:10.313Z,10.00
2023-11-04T19:06:38.753Z,9.90
2023-11-04T19:09:07.155Z,9.90
2023-11-04T19:11:35.435Z,9.90
2023-11-04T19:14:04.661Z,9.90
2023-11-04T19:16:32.957Z,9.90
2023-11-04T19:19:01.041Z,9.90
2023-11-04T19:21:30.679Z,9.90
2023-11-04T19:23:58.781Z,9.90
2023-11-04T19:26:27.873Z,9.90
2023-11-04T19:28:56.123Z,9.90
2023-11-04T19:31:24.713Z,10.00
2023-11-04T19:33:54.113Z,10.10
2023-11-04T19:36:22.665Z,10.10
2023-11-04T19:38:52.307Z,10.10
2023-11-04T19:41:20.541Z,10.10
2023-11-04T19:43:48.780Z,10.10
2023-11-04T19:46:17.495Z,10.10
2023-11-04T19:48:45.681Z,10.10
2023-11-04T19:51:13.892Z,10.10
2023-11-04T19:53:42.062Z,10.10
2023-11-04T19:56:11.900Z,10.10
2023-11-04T19:58:42.025Z,10.00
2023-11-04T20:01:10.141Z,10.10
2023-11-04T20:03:38.400Z,10.00
2023-11-04T20:06:07.555Z,10.00
2023-11-04T20:08:40.091Z,10.00
2023-11-04T20:11:08.657Z,10.00
2023-11-04T20:13:38.223Z,10.00
2023-11-04T20:16:07.943Z,10.10
2023-11-04T20:18:36.272Z,10.20
2023-11-04T20:21:04.732Z,10.30
2023-11-04T20:23:32.989Z,10.30
2023-11-04T20:26:01.108Z,10.30
2023-11-04T20:28:30.472Z,10.20
2023-11-04T20:31:00.241Z,10.00
2023-11-04T20:33:28.584Z,9.80
2023-11-04T20:35:56.907Z,9.80
2023-11-04T20:38:26.025Z,9.80
2023-11-04T20:40:54.091Z,9.90
2023-11-04T20:43:23.058Z,10.00
2023-11-04T20:45:51.376Z,10.00
2023-11-04T20:48:21.873Z,10.00
2023-11-04T20:50:50.470Z,10.00
2023-11-04T20:53:20.550Z,10.00
2023-11-04T20:55:48.768Z,10.00
2023-11-04T20:58:17.749Z,10.10
2023-11-04T21:00:45.951Z,10.00
2023-11-04T21:03:14.318Z,10.10
2023-11-04T21:05:44.066Z,10.10
2023-11-04T21:08:12.935Z,10.20
2023-11-04T21:10:41.312Z,10.20
2023-11-04T21:13:10.562Z,10.20
2023-11-04T21:15:38.809Z,10.10
2023-11-04T21:18:07.682Z,10.10
2023-11-04T21:20:35.874Z,10.20
2023-11-04T21:23:05.865Z,10.20
2023-11-04T21:25:34.895Z,10.30
2023-11-04T21:28:06.049Z,10.30
2023-11-04T21:30:34.500Z,10.30
2023-11-04T21:33:04.203Z,10.10
2023-11-04T21:35:32.383Z,10.10
2023-11-04T21:38:00.487Z,10.00
2023-11-04T21:40:30.295Z,9.90
2023-11-04T21:42:58.555Z,9.80
2023-11-04T21:45:28.071Z,9.90
2023-11-04T21:47:57.347Z,10.00
2023-11-04T21:50:25.849Z,10.10
2023-11-04T21:52:55.688Z,10.20
2023-11-04T21:55:25.017Z,10.20
2023-11-04T21:57:55.026Z,10.10
2023-11-04T22:00:23.761Z,10.20
2023-11-04T22:02:52.267Z,10.20
2023-11-04T22:05:20.500Z,10.30
2023-11-04T22:07:49.929Z,10.30
2023-11-04T22:10:18.351Z,10.50
2023-11-04T22:12:46.765Z,10.40
2023-11-04T22:15:16.328Z,10.30
2023-11-04T22:17:44.624Z,10.30
2023-11-04T22:20:14.393Z,10.20
2023-11-04T22:22:42.567Z,10.30
2023-11-04T22:25:11.488Z,10.30
2023-11-04T22:27:39.674Z,10.30
2023-11-04T22:30:09.193Z,10.40
2023-11-04T22:32:38.837Z,10.50
2023-11-04T22:35:07.298Z,10.50
2023-11-04T22:37:35.498Z,10.50
2023-11-04T22:40:03.792Z,10.60
2023-11-04T22:42:32.031Z,10.60
2023-11-04T22:45:00.988Z,10.60
2023-11-04T22:47:29.111Z,10.60
2023-11-04T22:49:58.703Z,10.60
2023-11-04T22:52:26.795Z,10.60
2023-11-04T22:54:54.954Z,10.40
2023-11-04T22:57:23.018Z,10.40
2023-11-04T22:59:51.176Z,10.40
2023-11-04T23:02:19.391Z,10.50
2023-11-04T23:04:47.698Z,10.60
2023-11-04T23:07:17.646Z,10.70
2023-11-04T23:09:45.970Z,10.70
2023-11-04T23:12:15.277Z,10.90
2023-11-04T23:14:43.452Z,10.90
2023-11-04T23:17:12.051Z,11.00
2023-11-04T23:19:40.277Z,10.90
2023-11-04T23:22:08.641Z,10.60
2023-11-04T23:24:39.151Z,10.50
2023-11-04T23:27:07.521Z,10.40
2023-11-04T23:29:35.741Z,10.40
2023-11-04T23:32:03.908Z,10.50
2023-11-04T23:34:32.134Z,10.50
2023-11-04T23:37:00.323Z,10.30
2023-11-04T23:39:28.525Z,10.30
2023-11-04T23:41:58.028Z,10.30
2023-11-04T23:44:26.382Z,10.20
2023-11-04T23:46:54.513Z,10.20
2023-11-04T23:49:22.710Z,10.20
2023-11-04T23:51:51.037Z,10.10
2023-11-04T23:54:19.338Z,10.10
2023-11-04T23:56:47.538Z,10.10
2023-11-04T23:59:21.570Z,10.00
